الصفحة الرئيسية
METAR-TAF:

METAR-TAF

مطار :

Antofagasta, تشيلي

دائرة عرض: 23-26S, خط طول: 070-26W, ارتفاع: 135 متر

مراقبة الطقس الحالي

تاريخ ووقت الإصدار 34 دقيقة قبل الساعة 09:00UTC
ريح 5 عقدة من الشمال الغربي
درجة الحرارة 14°درجة مئوية
الرطوبة 72%
ضغط 1017 hPa
الرؤية 10 كم أو أكثر
ملبد بالغيوم على ارتفاع 1900 قدم

METAR: SCFA 170900Z 32005KT 9999 OVC019 14/09 Q1017 NOSIG

زمن: 05:34 (09:34 UTC)

توقعات

تاريخ ووقت الإصدار 4ساعات و 51 دقيقة قبل الساعة 04:43UTC
التوقعات صالحة من17 الساعة 06 UTC إلى 18 الساعة 06 UTC
ريح 4 عقدة من الشمال/الشمال الغربي
الرؤية 10 كم أو أكثر
ملبد بالغيوم على ارتفاع 1700 قدم
أصبح
من 17 الساعة 16 UTC إلى 17 الساعة 18 UTC
ريح 10 عقدة من الجنوب الغربي
غيوم مفككة على ارتفاع 2000 قدم
أصبح
من 17 الساعة 22 UTC إلى 18 الساعة 00 UTC
ريح 4 عقدة من الجنوب
ملبد بالغيوم على ارتفاع 2000 قدم

TAF: SCFA 170443Z 1706/1806 33004KT 9999 OVC017 TN12/1706Z TX15/1716Z BECMG 1716/1718 22010KT BKN020 BECMG 1722/1800 19004KT OVC020

أرصاد الطقس والتوقعات من أكثر من 4000 مطار (تقارير الطقس للمطار METAR والتنبؤ بالطقس بالمطارTAF).

المحطات المتاحة هي النقط الصفراء والحمراء على الخريطة.

حرك المؤشر فوق النقطة لمعرفة اسم المحطة.

ثم انقر لمعرفة أرصاد وتوقعات الطقس.

لتغيير الخارطة: اضغط على الأزرار الخضراء مع رمز الصليب الأسود للتكبير. على الزر الأخضر مع شرطة للتصغير، أو على الأسهم الخضراء للخرائط المجاورة.


METAR-TAF: